91NY weather

Manitou Field
Spencerport, New York, United States

Public forecast

Using degrees Fahrenheit for public forecast. Weather courtesy of forecast.io.

METAR (pilot weather report)

Closest report is Greater Rochester International Airport, 5.7 nm (10.5 km) SE. Retrieved 2019/05/19 16:54 UTC (1 hour ago):

KROC 191654Z 03008KT 10SM SCT065 BKN090 BKN110 22/17 A2984 RMK AO2 LTG DSNT NE AND E RAE31 TSB1558E16 SLP106 TS OHD MOV NE CB DSNT N MOV NE P0001 T02170167

TAF (pilot weather forecast)

Closest forecast is Greater Rochester International Airport, 5.7 nm (10.5 km) SE. Retrieved 2019/05/19 12:22 UTC (6 hours ago):

TAF KROC 191120Z 1912/2012 20012G22KT P6SM SCT100 FM191400 23008KT P6SM BKN050 FM191700 23005KT 6SM -SHRA VCTS BKN040CB FM200000 20008KT P6SM VCSH BKN100 WS015/25040KT